createdAt,value
2023-05-04T00:01:24.832Z,2.33
2023-05-04T00:03:52.956Z,1.70
2023-05-04T00:06:20.785Z,1.73
2023-05-04T00:08:49.773Z,1.53
2023-05-04T00:11:17.522Z,1.30
2023-05-04T00:13:46.011Z,1.40
2023-05-04T00:16:13.769Z,1.63
2023-05-04T00:18:41.595Z,1.40
2023-05-04T00:21:09.260Z,1.30
2023-05-04T00:23:37.075Z,1.43
2023-05-04T00:26:06.174Z,1.87
2023-05-04T00:28:33.864Z,1.93
2023-05-04T00:31:01.579Z,2.37
2023-05-04T00:33:29.279Z,1.53
2023-05-04T00:35:57.041Z,1.50
2023-05-04T00:38:24.904Z,4.23
2023-05-04T00:40:52.627Z,2.20
2023-05-04T00:43:21.758Z,2.27
2023-05-04T00:45:49.546Z,1.43
2023-05-04T00:48:17.377Z,1.60
2023-05-04T00:50:45.199Z,1.30
2023-05-04T00:53:13.140Z,1.30
2023-05-04T00:55:41.544Z,1.30
2023-05-04T00:58:09.517Z,1.50
2023-05-04T01:00:39.136Z,2.33
2023-05-04T01:03:07.276Z,1.63
2023-05-04T01:05:39.348Z,1.97
2023-05-04T01:08:10.709Z,2.03
2023-05-04T01:10:44.459Z,2.00
2023-05-04T01:13:14.992Z,1.80
2023-05-04T01:15:48.349Z,1.33
2023-05-04T01:18:17.394Z,1.70
2023-05-04T01:20:45.120Z,1.60
2023-05-04T01:23:14.170Z,1.90
2023-05-04T01:25:50.546Z,1.60
2023-05-04T01:28:21.891Z,2.57
2023-05-04T01:30:53.939Z,1.50
2023-05-04T01:33:22.746Z,1.30
2023-05-04T01:35:54.241Z,1.33
2023-05-04T01:38:28.043Z,1.80
2023-05-04T01:40:56.967Z,1.43
2023-05-04T01:43:24.664Z,2.03
2023-05-04T01:45:52.583Z,1.33
2023-05-04T01:48:20.288Z,1.50
2023-05-04T01:50:48.293Z,1.63
2023-05-04T01:53:16.018Z,2.10
2023-05-04T01:55:45.201Z,2.40
2023-05-04T01:58:12.893Z,2.20
2023-05-04T02:00:40.877Z,2.57
2023-05-04T02:03:11.769Z,1.40
2023-05-04T02:05:39.597Z,2.97
2023-05-04T02:08:07.619Z,1.97
2023-05-04T02:10:35.351Z,1.60
2023-05-04T02:13:04.648Z,2.50
2023-05-04T02:15:32.341Z,2.53
2023-05-04T02:18:00.056Z,2.03
2023-05-04T02:20:27.885Z,1.67
2023-05-04T02:22:55.546Z,1.50
2023-05-04T02:25:23.859Z,1.50
2023-05-04T02:27:51.539Z,1.90
2023-05-04T02:30:21.148Z,1.50
2023-05-04T02:32:48.885Z,2.23
2023-05-04T02:35:16.637Z,2.30
2023-05-04T02:37:44.312Z,1.30
2023-05-04T02:40:13.852Z,2.23
2023-05-04T02:42:41.632Z,2.10
2023-05-04T02:45:10.198Z,1.83
2023-05-04T02:47:41.878Z,2.00
2023-05-04T02:50:10.429Z,2.10
2023-05-04T02:52:38.133Z,1.53
2023-05-04T02:55:06.947Z,1.63
2023-05-04T02:57:34.641Z,1.83
2023-05-04T03:00:02.633Z,3.03
2023-05-04T03:02:30.432Z,2.17
2023-05-04T03:04:59.463Z,1.20
2023-05-04T03:07:27.541Z,1.50
2023-05-04T03:09:55.289Z,2.93
2023-05-04T03:12:23.442Z,1.50
2023-05-04T03:14:51.157Z,1.60
2023-05-04T03:17:19.160Z,1.50
2023-05-04T03:19:48.420Z,1.47
2023-05-04T03:22:21.349Z,1.50
2023-05-04T03:24:55.325Z,1.70
2023-05-04T03:27:23.339Z,1.20
2023-05-04T03:29:51.340Z,1.97
2023-05-04T03:32:20.622Z,1.50
2023-05-04T03:34:48.448Z,1.70
2023-05-04T03:37:18.816Z,1.83
2023-05-04T03:39:46.515Z,1.43
2023-05-04T03:42:14.250Z,1.80
2023-05-04T03:44:42.325Z,1.40
2023-05-04T03:47:10.381Z,2.13
2023-05-04T03:49:38.090Z,1.60
2023-05-04T03:52:07.370Z,1.30
2023-05-04T03:54:36.777Z,1.40
2023-05-04T03:57:04.457Z,2.00
2023-05-04T03:59:36.204Z,3.83
2023-05-04T04:02:06.545Z,1.37
2023-05-04T04:04:38.085Z,2.17
2023-05-04T04:07:09.729Z,2.00
2023-05-04T04:09:40.225Z,1.30
2023-05-04T04:12:10.133Z,1.57
2023-05-04T04:14:48.445Z,1.70
2023-05-04T04:17:19.265Z,1.80
2023-05-04T04:19:47.195Z,2.47
2023-05-04T04:22:15.228Z,2.23
2023-05-04T04:25:09.141Z,1.20
2023-05-04T04:27:37.970Z,2.53
2023-05-04T04:30:07.440Z,1.40
2023-05-04T04:32:37.595Z,2.00
2023-05-04T04:35:07.039Z,2.23
2023-05-04T04:37:35.304Z,1.93
2023-05-04T04:40:08.800Z,2.03
2023-05-04T04:42:42.198Z,1.90
2023-05-04T04:45:15.549Z,3.07
2023-05-04T04:47:47.386Z,2.83
2023-05-04T04:50:17.389Z,2.23
2023-05-04T04:52:46.807Z,1.40
2023-05-04T04:55:17.339Z,1.93
2023-05-04T04:57:55.762Z,1.70
2023-05-04T05:00:24.254Z,1.40
2023-05-04T05:02:58.050Z,2.23
2023-05-04T05:05:26.968Z,1.80
2023-05-04T05:07:57.396Z,2.13
2023-05-04T05:10:25.373Z,1.63
2023-05-04T05:12:57.607Z,1.90
2023-05-04T05:15:25.840Z,1.93
2023-05-04T05:17:54.096Z,1.77
2023-05-04T05:20:23.749Z,2.27
2023-05-04T05:22:52.425Z,1.17
2023-05-04T05:25:25.072Z,2.17
2023-05-04T05:28:06.275Z,2.27
2023-05-04T05:30:34.507Z,1.37
2023-05-04T05:33:03.802Z,1.57
2023-05-04T05:35:31.527Z,2.23
2023-05-04T05:37:59.757Z,2.00
2023-05-04T05:40:27.463Z,3.20
2023-05-04T05:42:56.619Z,2.97
2023-05-04T05:45:24.481Z,2.97
2023-05-04T05:47:52.215Z,3.37
2023-05-04T05:50:20.972Z,2.03
2023-05-04T05:52:48.655Z,2.80
2023-05-04T05:55:16.537Z,2.50
2023-05-04T05:57:44.295Z,2.47
2023-05-04T06:00:15.138Z,2.23
2023-05-04T06:02:43.050Z,1.93
2023-05-04T06:05:11.674Z,1.87
2023-05-04T06:07:39.469Z,2.20
2023-05-04T06:10:08.845Z,3.23
2023-05-04T06:12:36.630Z,3.97
2023-05-04T06:15:04.788Z,3.03
2023-05-04T06:17:33.855Z,2.47
2023-05-04T06:20:01.550Z,2.47
2023-05-04T06:22:29.203Z,3.50
2023-05-04T06:25:02.157Z,2.37
2023-05-04T06:27:32.911Z,1.83
2023-05-04T06:30:00.923Z,2.37
2023-05-04T06:32:28.674Z,3.47
2023-05-04T06:34:59.380Z,2.80
2023-05-04T06:37:27.149Z,3.30
2023-05-04T06:39:55.572Z,3.27
2023-05-04T06:42:23.386Z,2.23
2023-05-04T06:44:52.514Z,3.13
2023-05-04T06:47:20.221Z,2.23
2023-05-04T06:49:48.010Z,2.83
2023-05-04T06:52:17.016Z,3.83
2023-05-04T06:54:44.664Z,2.70
2023-05-04T06:57:12.380Z,4.13
2023-05-04T06:59:40.094Z,4.83
2023-05-04T07:02:08.206Z,7.13
2023-05-04T07:04:35.977Z,4.83
2023-05-04T07:07:03.928Z,5.00
2023-05-04T07:09:33.153Z,3.10
2023-05-04T07:12:00.811Z,5.40
2023-05-04T07:14:28.508Z,6.13
2023-05-04T07:16:56.199Z,4.37
2023-05-04T07:19:23.885Z,4.37
2023-05-04T07:21:51.584Z,4.53
2023-05-04T07:24:19.259Z,4.50
2023-05-04T07:26:48.278Z,2.93
2023-05-04T07:29:16.111Z,2.97
2023-05-04T07:31:43.795Z,3.43
2023-05-04T07:34:11.624Z,3.40
2023-05-04T07:36:40.480Z,3.20
2023-05-04T07:39:09.781Z,2.97
2023-05-04T07:41:37.616Z,2.97
2023-05-04T07:44:08.590Z,2.13
2023-05-04T07:46:36.472Z,3.00
2023-05-04T07:49:04.350Z,2.73
2023-05-04T07:51:32.000Z,3.47
2023-05-04T07:53:59.878Z,4.70
2023-05-04T07:56:27.542Z,4.70
2023-05-04T07:58:55.255Z,8.60
2023-05-04T08:01:24.707Z,5.53
2023-05-04T08:03:52.637Z,6.83
2023-05-04T08:06:20.407Z,5.17
2023-05-04T08:08:51.485Z,4.03
2023-05-04T08:11:21.319Z,3.67
2023-05-04T08:13:50.593Z,3.50
2023-05-04T08:16:18.647Z,3.20
2023-05-04T08:18:48.392Z,3.40
2023-05-04T08:21:16.215Z,4.50
2023-05-04T08:23:44.122Z,4.37
2023-05-04T08:26:11.786Z,4.30
2023-05-04T08:28:41.067Z,4.57
2023-05-04T08:31:08.895Z,3.57
2023-05-04T08:33:36.862Z,3.17
2023-05-04T08:36:07.752Z,3.53
2023-05-04T08:38:35.546Z,5.17
2023-05-04T08:41:04.156Z,3.57
2023-05-04T08:43:35.909Z,4.53
2023-05-04T08:46:04.935Z,3.17
2023-05-04T08:48:33.607Z,6.77
2023-05-04T08:51:04.339Z,2.87
2023-05-04T08:53:35.388Z,4.90
2023-05-04T08:56:04.967Z,4.13
2023-05-04T08:58:38.003Z,2.77
2023-05-04T09:01:08.396Z,3.27
2023-05-04T09:03:36.696Z,7.97
2023-05-04T09:06:04.945Z,4.77
2023-05-04T09:08:34.188Z,7.40
2023-05-04T09:11:02.066Z,5.77
2023-05-04T09:13:29.743Z,4.33
2023-05-04T09:15:58.165Z,4.83
2023-05-04T09:18:36.823Z,5.30
2023-05-04T09:21:04.707Z,4.53
2023-05-04T09:23:34.506Z,4.97
2023-05-04T09:26:02.609Z,4.30
2023-05-04T09:28:39.147Z,4.33
2023-05-04T09:31:07.799Z,3.30
2023-05-04T09:33:35.593Z,3.83
2023-05-04T09:36:14.783Z,4.97
2023-05-04T09:38:44.261Z,3.97
2023-05-04T09:41:12.006Z,3.97
2023-05-04T09:43:40.859Z,7.40
2023-05-04T09:46:16.305Z,4.20
2023-05-04T09:48:52.075Z,3.80
2023-05-04T09:51:22.469Z,2.70
2023-05-04T09:53:52.538Z,5.37
2023-05-04T09:56:32.098Z,5.27
2023-05-04T09:59:00.760Z,3.13
2023-05-04T10:01:30.469Z,5.93
2023-05-04T10:03:58.577Z,3.77
2023-05-04T10:06:29.451Z,3.57
2023-05-04T10:09:00.237Z,4.80
2023-05-04T10:11:27.868Z,4.57
2023-05-04T10:13:57.172Z,3.17
2023-05-04T10:16:34.489Z,6.23
2023-05-04T10:19:19.280Z,5.50
2023-05-04T10:22:01.072Z,3.13
2023-05-04T10:24:50.076Z,3.67
2023-05-04T10:27:22.875Z,5.50
2023-05-04T10:29:52.124Z,3.40
2023-05-04T10:32:20.809Z,5.17
2023-05-04T10:34:49.155Z,5.23
2023-05-04T10:37:18.625Z,7.70
2023-05-04T10:39:54.058Z,4.27
2023-05-04T10:42:22.276Z,4.43
2023-05-04T10:44:51.192Z,3.30
2023-05-04T10:47:29.106Z,3.33
2023-05-04T10:50:04.651Z,4.17
2023-05-04T10:52:32.802Z,3.80
2023-05-04T10:55:04.138Z,3.87
2023-05-04T10:57:31.915Z,3.03
2023-05-04T10:59:59.972Z,3.40
2023-05-04T11:02:30.437Z,3.67
2023-05-04T11:05:04.054Z,3.63
2023-05-04T11:07:37.621Z,3.23
2023-05-04T11:10:09.620Z,4.97
2023-05-04T11:12:38.961Z,3.90
2023-05-04T11:15:08.444Z,5.37
2023-05-04T11:17:45.424Z,4.67
2023-05-04T11:20:20.672Z,3.30
2023-05-04T11:22:48.652Z,2.23
2023-05-04T11:25:18.325Z,2.77
2023-05-04T11:27:50.006Z,2.97
2023-05-04T11:30:18.083Z,3.23
2023-05-04T11:32:47.226Z,5.00
2023-05-04T11:35:17.058Z,3.43
2023-05-04T11:37:46.337Z,3.17
2023-05-04T11:40:16.536Z,4.80
2023-05-04T11:42:46.003Z,3.00
2023-05-04T11:45:17.023Z,4.17
2023-05-04T11:47:45.645Z,1.70
2023-05-04T11:50:15.054Z,2.07
2023-05-04T11:52:43.515Z,1.93
2023-05-04T11:55:17.235Z,3.30
2023-05-04T11:57:47.425Z,2.50
2023-05-04T12:00:17.239Z,3.30
2023-05-04T12:02:48.350Z,3.33
2023-05-04T12:05:17.000Z,4.27
2023-05-04T12:07:44.731Z,4.10
2023-05-04T12:10:12.394Z,1.83
2023-05-04T12:12:40.457Z,2.10
2023-05-04T12:15:11.275Z,2.17
2023-05-04T12:17:42.575Z,2.83
2023-05-04T12:20:10.779Z,4.63
2023-05-04T12:22:38.699Z,4.50
2023-05-04T12:25:09.311Z,2.70
2023-05-04T12:27:41.750Z,2.83
2023-05-04T12:30:12.366Z,2.07
2023-05-04T12:32:40.104Z,2.70
2023-05-04T12:35:08.581Z,1.87
2023-05-04T12:37:36.586Z,3.27
2023-05-04T12:40:11.342Z,3.80
2023-05-04T12:42:45.746Z,4.13
2023-05-04T12:45:16.119Z,2.27
2023-05-04T12:47:43.969Z,2.73
2023-05-04T12:50:12.191Z,2.00
2023-05-04T12:52:40.679Z,3.37
2023-05-04T12:55:09.253Z,3.87
2023-05-04T12:57:37.568Z,4.27
2023-05-04T13:00:09.570Z,2.73
2023-05-04T13:02:38.725Z,2.70
2023-05-04T13:05:07.995Z,3.80
2023-05-04T13:07:36.260Z,2.43
2023-05-04T13:10:04.133Z,1.53
2023-05-04T13:12:31.808Z,2.77
2023-05-04T13:14:59.621Z,2.53
2023-05-04T13:17:29.659Z,2.63
2023-05-04T13:19:58.728Z,2.27
2023-05-04T13:22:27.153Z,2.33
2023-05-04T13:24:57.267Z,1.52
2023-05-04T13:27:24.968Z,3.72
2023-05-04T13:29:52.705Z,3.15
2023-05-04T13:32:20.462Z,2.88
2023-05-04T13:34:48.446Z,2.42
2023-05-04T13:37:18.524Z,2.92
2023-05-04T13:39:47.027Z,2.47
2023-05-04T13:42:14.813Z,1.85
2023-05-04T13:44:44.845Z,2.25
2023-05-04T13:47:13.755Z,3.92
2023-05-04T13:49:41.680Z,2.88
2023-05-04T13:52:09.391Z,4.25
2023-05-04T13:54:38.816Z,2.90
2023-05-04T13:57:06.455Z,3.22
2023-05-04T13:59:34.348Z,2.47
2023-05-04T14:02:02.136Z,3.97
2023-05-04T14:04:29.786Z,2.35
2023-05-04T14:06:57.705Z,1.90
2023-05-04T14:09:26.719Z,2.60
2023-05-04T14:11:55.756Z,4.07
2023-05-04T14:14:23.479Z,4.25
2023-05-04T14:16:51.718Z,3.92
2023-05-04T14:19:19.748Z,2.30
2023-05-04T14:21:47.791Z,2.60
2023-05-04T14:24:15.523Z,3.00
2023-05-04T14:26:43.187Z,2.92
2023-05-04T14:29:12.846Z,3.65
2023-05-04T14:31:40.893Z,4.22
2023-05-04T14:34:08.696Z,2.20
2023-05-04T14:36:36.635Z,4.13
2023-05-04T14:39:04.444Z,3.80
2023-05-04T14:41:33.655Z,3.13
2023-05-04T14:44:01.519Z,2.27
2023-05-04T14:46:31.107Z,4.47
2023-05-04T14:48:59.023Z,1.73
2023-05-04T14:51:27.684Z,4.40
2023-05-04T14:53:55.406Z,2.40
2023-05-04T14:56:23.343Z,2.93
2023-05-04T14:58:51.125Z,2.65
2023-05-04T15:01:18.785Z,2.03
2023-05-04T15:03:47.874Z,1.95
2023-05-04T15:06:15.632Z,2.45
2023-05-04T15:08:43.358Z,2.27
2023-05-04T15:11:11.056Z,2.80
2023-05-04T15:13:38.721Z,3.40
2023-05-04T15:16:07.531Z,3.43
2023-05-04T15:18:35.499Z,3.10
2023-05-04T15:21:04.574Z,4.40
2023-05-04T15:23:32.242Z,3.20
2023-05-04T15:26:00.820Z,2.10
2023-05-04T15:28:28.509Z,2.65
2023-05-04T15:30:56.311Z,2.87
2023-05-04T15:33:24.006Z,1.80
2023-05-04T15:35:51.773Z,2.07
2023-05-04T15:38:20.883Z,3.90
2023-05-04T15:40:48.864Z,2.90
2023-05-04T15:43:16.532Z,3.37
2023-05-04T15:45:44.178Z,2.37
2023-05-04T15:48:11.918Z,1.60
2023-05-04T15:50:39.591Z,1.60
2023-05-04T15:53:07.198Z,1.97
2023-05-04T15:55:36.283Z,3.47
2023-05-04T15:58:03.945Z,3.17
2023-05-04T16:00:31.702Z,3.00
2023-05-04T16:03:00.820Z,2.63
2023-05-04T16:05:28.710Z,2.60
2023-05-04T16:07:57.035Z,2.13
2023-05-04T16:10:24.914Z,3.07
2023-05-04T16:12:54.000Z,2.80
2023-05-04T16:15:21.703Z,3.83
2023-05-04T16:17:49.491Z,3.37
2023-05-04T16:20:17.218Z,3.40
2023-05-04T16:22:44.901Z,3.77
2023-05-04T16:25:12.534Z,4.67
2023-05-04T16:27:40.656Z,2.83
2023-05-04T16:30:11.116Z,2.73
2023-05-04T16:32:38.919Z,2.83
2023-05-04T16:35:07.648Z,3.57
2023-05-04T16:37:36.317Z,2.57
2023-05-04T16:40:10.758Z,1.87
2023-05-04T16:42:38.398Z,3.90
2023-05-04T16:45:07.558Z,2.30
2023-05-04T16:47:36.782Z,1.90
2023-05-04T16:50:05.031Z,4.43
2023-05-04T16:52:32.841Z,1.83
2023-05-04T16:55:01.093Z,1.50
2023-05-04T16:57:28.858Z,1.47
2023-05-04T16:59:56.937Z,1.63
2023-05-04T17:02:24.754Z,2.40
2023-05-04T17:04:54.286Z,1.60
2023-05-04T17:07:21.935Z,2.60
2023-05-04T17:09:49.578Z,1.67
2023-05-04T17:12:17.207Z,2.17
2023-05-04T17:14:45.984Z,1.60
2023-05-04T17:17:13.621Z,2.27
2023-05-04T17:19:41.327Z,1.27
2023-05-04T17:22:11.196Z,1.73
2023-05-04T17:24:38.901Z,1.50
2023-05-04T17:27:06.523Z,2.27
2023-05-04T17:29:34.151Z,2.03
2023-05-04T17:32:02.203Z,1.70
2023-05-04T17:34:29.862Z,1.43
2023-05-04T17:36:57.541Z,1.53
2023-05-04T17:39:26.536Z,1.40
2023-05-04T17:41:54.148Z,1.33
2023-05-04T17:44:24.703Z,3.17
2023-05-04T17:46:52.328Z,1.63
2023-05-04T17:49:20.927Z,1.23
2023-05-04T17:51:49.157Z,1.60
2023-05-04T17:54:17.100Z,1.30
2023-05-04T17:56:46.106Z,2.90
2023-05-04T17:59:13.756Z,1.50
2023-05-04T18:01:41.582Z,1.60
2023-05-04T18:04:09.224Z,1.50
2023-05-04T18:06:37.367Z,1.67
2023-05-04T18:09:05.296Z,1.40
2023-05-04T18:11:33.054Z,1.50
2023-05-04T18:14:02.059Z,1.73
2023-05-04T18:16:29.723Z,1.20
2023-05-04T18:18:58.427Z,1.43
2023-05-04T18:21:26.278Z,1.40
2023-05-04T18:23:54.069Z,1.10
2023-05-04T18:26:22.655Z,1.00
2023-05-04T18:28:50.850Z,1.20
2023-05-04T18:31:20.303Z,1.50
2023-05-04T18:33:48.063Z,1.50
2023-05-04T18:36:15.733Z,1.07
2023-05-04T18:38:43.366Z,1.10
2023-05-04T18:41:11.887Z,1.27
2023-05-04T18:43:39.574Z,0.90
2023-05-04T18:46:08.005Z,1.10
2023-05-04T18:48:37.099Z,0.90
2023-05-04T18:51:05.419Z,0.87
2023-05-04T18:53:33.035Z,0.90
2023-05-04T18:56:02.166Z,1.10
2023-05-04T18:58:29.860Z,0.90
2023-05-04T19:00:57.493Z,1.10
2023-05-04T19:03:25.530Z,1.23
2023-05-04T19:05:55.074Z,1.00
2023-05-04T19:08:23.181Z,1.00
2023-05-04T19:10:51.081Z,1.10
2023-05-04T19:13:20.721Z,1.00
2023-05-04T19:15:48.354Z,1.17
2023-05-04T19:18:17.098Z,1.00
2023-05-04T19:20:45.071Z,1.43
2023-05-04T19:23:14.047Z,0.70
2023-05-04T19:25:41.755Z,0.80
2023-05-04T19:28:09.869Z,1.07
2023-05-04T19:30:37.887Z,1.03
2023-05-04T19:33:06.546Z,1.27
2023-05-04T19:35:34.272Z,0.93
2023-05-04T19:38:02.422Z,1.97
2023-05-04T19:40:31.632Z,1.20
2023-05-04T19:42:59.370Z,0.90
2023-05-04T19:45:27.224Z,1.40
2023-05-04T19:47:54.889Z,1.20
2023-05-04T19:50:22.573Z,1.53
2023-05-04T19:52:50.412Z,1.43
2023-05-04T19:55:18.157Z,0.80
2023-05-04T19:57:47.813Z,1.03
2023-05-04T20:00:17.147Z,1.10
2023-05-04T20:02:45.263Z,1.37
2023-05-04T20:05:13.132Z,1.27
2023-05-04T20:07:40.867Z,1.10
2023-05-04T20:10:09.283Z,1.07
2023-05-04T20:12:37.163Z,1.23
2023-05-04T20:15:07.373Z,1.77
2023-05-04T20:17:35.098Z,1.40
2023-05-04T20:20:03.767Z,1.77
2023-05-04T20:22:32.340Z,2.73
2023-05-04T20:25:00.140Z,1.43
2023-05-04T20:27:27.810Z,1.53
2023-05-04T20:29:55.498Z,1.80
2023-05-04T20:32:24.491Z,1.83
2023-05-04T20:34:52.112Z,1.23
2023-05-04T20:37:19.735Z,1.33
2023-05-04T20:39:47.414Z,1.30
2023-05-04T20:42:15.567Z,1.47
2023-05-04T20:44:43.395Z,1.40
2023-05-04T20:47:11.402Z,1.60
2023-05-04T20:49:40.437Z,1.20
2023-05-04T20:52:08.195Z,1.50
2023-05-04T20:54:35.905Z,1.30
2023-05-04T20:57:03.576Z,1.40
2023-05-04T20:59:31.452Z,1.37
2023-05-04T21:01:59.204Z,1.10
2023-05-04T21:04:26.814Z,1.20
2023-05-04T21:06:55.798Z,1.10
2023-05-04T21:09:23.422Z,2.00
2023-05-04T21:11:51.053Z,1.50
2023-05-04T21:14:18.664Z,1.20
2023-05-04T21:16:46.317Z,1.10
2023-05-04T21:19:13.948Z,1.40
2023-05-04T21:21:41.661Z,0.90
2023-05-04T21:24:13.336Z,0.90
2023-05-04T21:26:41.652Z,1.40
2023-05-04T21:29:12.223Z,1.20
2023-05-04T21:31:40.110Z,1.57
2023-05-04T21:34:08.250Z,1.00
2023-05-04T21:36:35.934Z,1.30
2023-05-04T21:39:03.587Z,1.27
2023-05-04T21:41:32.595Z,1.20
2023-05-04T21:44:00.346Z,1.50
2023-05-04T21:46:28.363Z,1.20
2023-05-04T21:48:56.017Z,1.17
2023-05-04T21:51:23.686Z,1.40
2023-05-04T21:53:51.302Z,2.13
2023-05-04T21:56:18.899Z,1.13
2023-05-04T21:58:47.885Z,1.33
2023-05-04T22:01:16.978Z,1.30
2023-05-04T22:03:45.420Z,1.27
2023-05-04T22:06:13.772Z,1.20
2023-05-04T22:08:41.392Z,1.80
2023-05-04T22:11:09.237Z,1.40
2023-05-04T22:13:37.007Z,1.40
2023-05-04T22:16:08.865Z,1.17
2023-05-04T22:18:36.542Z,1.40
2023-05-04T22:21:04.280Z,1.20
2023-05-04T22:23:31.931Z,1.30
2023-05-04T22:25:59.680Z,1.47
2023-05-04T22:28:27.393Z,1.20
2023-05-04T22:30:55.101Z,1.30
2023-05-04T22:33:24.086Z,1.40
2023-05-04T22:35:51.688Z,1.40
2023-05-04T22:38:19.357Z,1.20
2023-05-04T22:40:48.293Z,1.50
2023-05-04T22:43:15.955Z,1.40
2023-05-04T22:45:43.618Z,1.50
2023-05-04T22:48:11.295Z,1.10
2023-05-04T22:50:40.232Z,1.40
2023-05-04T22:53:07.983Z,1.10
2023-05-04T22:55:35.651Z,1.40
2023-05-04T22:58:03.343Z,1.60
2023-05-04T23:00:31.745Z,1.27
2023-05-04T23:02:59.962Z,1.60
2023-05-04T23:05:27.836Z,1.60
2023-05-04T23:07:57.032Z,1.63
2023-05-04T23:10:24.676Z,1.70
2023-05-04T23:12:52.327Z,1.20
2023-05-04T23:15:20.138Z,1.30
2023-05-04T23:17:47.757Z,2.07
2023-05-04T23:20:16.742Z,1.47
2023-05-04T23:22:44.407Z,1.40
2023-05-04T23:25:13.361Z,1.30
2023-05-04T23:27:40.976Z,1.47
2023-05-04T23:30:10.279Z,1.70
2023-05-04T23:32:38.273Z,2.20
2023-05-04T23:35:07.510Z,1.60
2023-05-04T23:37:35.157Z,1.43
2023-05-04T23:40:02.981Z,1.40
2023-05-04T23:42:31.918Z,1.40
2023-05-04T23:44:59.494Z,1.40
2023-05-04T23:47:27.201Z,1.40
2023-05-04T23:49:54.835Z,2.00
2023-05-04T23:52:22.531Z,1.80
2023-05-04T23:54:53.682Z,2.03
2023-05-04T23:57:21.657Z,1.47
2023-05-04T23:59:50.787Z,1.70
